createdAt,value
2023-05-24T00:04:49.800Z,0.80
2023-05-24T00:15:11.344Z,0.80
2023-05-24T00:25:32.459Z,1.00
2023-05-24T00:35:56.920Z,0.70
2023-05-24T00:46:21.033Z,0.80
2023-05-24T00:56:45.352Z,0.80
2023-05-24T01:07:31.190Z,0.77
2023-05-24T01:18:06.223Z,0.73
2023-05-24T01:28:27.917Z,0.90
2023-05-24T01:38:49.743Z,0.90
2023-05-24T01:49:30.261Z,0.90
2023-05-24T01:59:53.406Z,1.00
2023-05-24T02:10:14.569Z,1.30
2023-05-24T02:20:38.753Z,1.00
2023-05-24T02:31:00.125Z,1.10
2023-05-24T02:41:22.433Z,1.30
2023-05-24T02:51:43.677Z,1.15
2023-05-24T03:02:05.622Z,1.13
2023-05-24T03:12:27.480Z,1.27
2023-05-24T03:22:48.806Z,1.60
2023-05-24T03:33:10.367Z,1.42
2023-05-24T03:43:31.633Z,1.30
2023-05-24T04:04:20.197Z,1.40
2023-05-24T04:14:41.721Z,1.60
2023-05-24T04:25:04.435Z,1.50
2023-05-24T04:35:26.590Z,1.70
2023-05-24T04:45:48.662Z,1.40
2023-05-24T04:56:10.146Z,1.75
2023-05-24T05:06:32.209Z,1.42
2023-05-24T05:16:53.475Z,1.70
2023-05-24T05:27:14.602Z,1.85
2023-05-24T05:37:36.126Z,1.55
2023-05-24T05:47:57.278Z,2.20
2023-05-24T05:58:18.806Z,1.70
2023-05-24T06:08:41.105Z,2.35
2023-05-24T06:19:06.381Z,1.92
2023-05-24T06:39:49.308Z,2.67
2023-05-24T06:50:10.681Z,2.08
2023-05-24T07:00:32.369Z,2.15
2023-05-24T07:10:54.476Z,2.58
2023-05-24T07:21:16.149Z,2.70
2023-05-24T07:31:38.422Z,2.30
2023-05-24T07:41:59.584Z,2.47
2023-05-24T07:52:21.989Z,2.35
2023-05-24T08:02:44.495Z,2.90
2023-05-24T08:13:06.302Z,2.80
2023-05-24T08:23:30.182Z,3.10
2023-05-24T08:33:51.567Z,3.05
2023-05-24T08:44:13.472Z,3.10
2023-05-24T08:54:38.042Z,2.97
2023-05-24T09:05:00.431Z,3.50
2023-05-24T09:15:21.606Z,3.47
2023-05-24T09:25:47.002Z,3.70
2023-05-24T09:36:08.972Z,4.25
2023-05-24T09:46:30.332Z,3.85
2023-05-24T09:56:51.813Z,3.88
2023-05-24T10:07:13.030Z,4.57
2023-05-24T10:17:34.344Z,3.92
2023-05-24T10:28:07.961Z,3.88
2023-05-24T10:38:30.005Z,3.70
2023-05-24T10:49:01.367Z,4.15
2023-05-24T10:59:38.344Z,4.35
2023-05-24T11:10:07.318Z,4.15
2023-05-24T11:20:28.479Z,3.88
2023-05-24T11:30:51.100Z,3.90
2023-05-24T11:41:12.592Z,4.60
2023-05-24T11:51:36.055Z,4.00
2023-05-24T12:02:02.067Z,4.22
2023-05-24T12:12:30.496Z,4.90
2023-05-24T12:22:56.332Z,3.80
2023-05-24T12:33:19.722Z,3.90
2023-05-24T12:43:41.096Z,3.67
2023-05-24T12:54:05.044Z,3.55
2023-05-24T13:04:31.888Z,3.67
2023-05-24T13:14:54.321Z,3.17
2023-05-24T13:25:16.948Z,3.50
2023-05-24T13:35:38.448Z,3.13
2023-05-24T13:46:00.027Z,3.20
2023-05-24T13:56:22.567Z,3.03
2023-05-24T14:06:43.769Z,3.15
2023-05-24T14:17:05.070Z,3.40
2023-05-24T14:27:26.645Z,3.10
2023-05-24T14:37:47.971Z,3.08
2023-05-24T14:48:13.495Z,2.88
2023-05-24T14:58:34.922Z,2.70
2023-05-24T15:08:56.798Z,3.22
2023-05-24T15:19:18.127Z,3.03
2023-05-24T15:29:39.798Z,3.05
2023-05-24T15:40:01.026Z,2.72
2023-05-24T15:50:31.640Z,3.15
2023-05-24T16:00:57.614Z,2.83
2023-05-24T16:11:21.553Z,2.85
2023-05-24T16:21:43.418Z,2.97
2023-05-24T16:32:04.844Z,3.03
2023-05-24T16:42:26.721Z,3.00
2023-05-24T16:52:48.647Z,3.15
2023-05-24T17:03:10.536Z,3.40
2023-05-24T17:13:32.277Z,3.72
2023-05-24T17:23:53.902Z,3.28
2023-05-24T17:34:16.802Z,3.08
2023-05-24T17:44:38.051Z,2.97
2023-05-24T17:54:59.445Z,3.22
2023-05-24T18:05:20.723Z,2.72
2023-05-24T18:15:44.394Z,3.10
2023-05-24T18:26:10.567Z,2.63
2023-05-24T18:36:33.300Z,3.08
2023-05-24T18:46:56.418Z,3.42
2023-05-24T18:57:17.719Z,2.88
2023-05-24T19:07:39.422Z,2.90
2023-05-24T19:18:02.018Z,2.67
2023-05-24T19:28:24.341Z,2.38
2023-05-24T19:38:45.301Z,2.67
2023-05-24T19:49:06.484Z,2.25
2023-05-24T19:59:28.177Z,2.60
2023-05-24T20:09:50.139Z,2.25
2023-05-24T20:20:12.119Z,2.70
2023-05-24T20:30:34.017Z,2.85
2023-05-24T20:40:55.852Z,2.45
2023-05-24T20:51:17.048Z,3.00
2023-05-24T21:01:38.628Z,2.40
2023-05-24T21:12:00.067Z,2.40
2023-05-24T21:22:21.597Z,2.55
2023-05-24T21:32:43.091Z,2.60
2023-05-24T21:43:05.510Z,2.90
2023-05-24T21:53:26.691Z,2.53
2023-05-24T22:03:47.935Z,2.38
2023-05-24T22:14:09.194Z,2.65
2023-05-24T22:24:31.045Z,2.70
2023-05-24T22:34:52.622Z,2.90
2023-05-24T22:45:14.314Z,2.50
2023-05-24T22:55:35.852Z,3.17
2023-05-24T23:06:04.106Z,3.13
2023-05-24T23:16:29.022Z,2.63
2023-05-24T23:26:50.674Z,2.57
2023-05-24T23:37:12.116Z,2.90
2023-05-24T23:47:33.444Z,3.15
2023-05-24T23:57:54.784Z,2.95
